sensor_id;sensor_type;location;lat;lon;timestamp;P1;durP1;ratioP1;P2;durP2;ratioP2
42146;SDS011;27815;43.410;11.852;2022-12-29T00:00:19;50.75;;;32.60;;
42146;SDS011;27815;43.410;11.852;2022-12-29T00:04:22;59.97;;;33.28;;
42146;SDS011;27815;43.410;11.852;2022-12-29T00:08:24;91.70;;;34.15;;
42146;SDS011;27815;43.410;11.852;2022-12-29T00:12:42;60.58;;;32.45;;
42146;SDS011;27815;43.410;11.852;2022-12-29T00:17:03;68.93;;;34.30;;
42146;SDS011;27815;43.410;11.852;2022-12-29T00:21:15;60.42;;;34.10;;
42146;SDS011;27815;43.410;11.852;2022-12-29T00:25:38;62.28;;;36.05;;
42146;SDS011;27815;43.410;11.852;2022-12-29T00:29:59;169.75;;;38.85;;
42146;SDS011;27815;43.410;11.852;2022-12-29T00:34:21;307.73;;;42.33;;
42146;SDS011;27815;43.410;11.852;2022-12-29T00:38:44;340.38;;;46.80;;
42146;SDS011;27815;43.410;11.852;2022-12-29T00:43:08;323.55;;;44.95;;
42146;SDS011;27815;43.410;11.852;2022-12-29T00:47:29;315.67;;;41.80;;
42146;SDS011;27815;43.410;11.852;2022-12-29T00:51:33;455.05;;;48.70;;
42146;SDS011;27815;43.410;11.852;2022-12-29T00:55:36;149.07;;;33.92;;
42146;SDS011;27815;43.410;11.852;2022-12-29T00:59:40;224.07;;;36.45;;
42146;SDS011;27815;43.410;11.852;2022-12-29T01:03:44;304.45;;;42.67;;
42146;SDS011;27815;43.410;11.852;2022-12-29T01:07:47;175.23;;;32.20;;
42146;SDS011;27815;43.410;11.852;2022-12-29T01:11:50;359.10;;;43.95;;
42146;SDS011;27815;43.410;11.852;2022-12-29T01:15:53;91.50;;;26.52;;
42146;SDS011;27815;43.410;11.852;2022-12-29T01:19:56;336.35;;;45.75;;
42146;SDS011;27815;43.410;11.852;2022-12-29T01:23:59;176.63;;;31.17;;
42146;SDS011;27815;43.410;11.852;2022-12-29T01:28:02;160.60;;;30.70;;
42146;SDS011;27815;43.410;11.852;2022-12-29T01:32:05;106.03;;;27.92;;
42146;SDS011;27815;43.410;11.852;2022-12-29T01:36:09;78.18;;;26.38;;
42146;SDS011;27815;43.410;11.852;2022-12-29T01:40:14;97.37;;;26.70;;
42146;SDS011;27815;43.410;11.852;2022-12-29T01:48:51;45.22;;;26.20;;
42146;SDS011;27815;43.410;11.852;2022-12-29T01:57:14;72.07;;;29.83;;
42146;SDS011;27815;43.410;11.852;2022-12-29T02:01:22;84.05;;;30.30;;
42146;SDS011;27815;43.410;11.852;2022-12-29T02:05:30;89.32;;;30.73;;
42146;SDS011;27815;43.410;11.852;2022-12-29T02:09:38;280.52;;;38.88;;
42146;SDS011;27815;43.410;11.852;2022-12-29T02:13:41;217.70;;;42.47;;
42146;SDS011;27815;43.410;11.852;2022-12-29T02:27:24;157.18;;;32.85;;
42146;SDS011;27815;43.410;11.852;2022-12-29T02:32:50;165.35;;;34.75;;
42146;SDS011;27815;43.410;11.852;2022-12-29T02:36:39;150.98;;;32.28;;
42146;SDS011;27815;43.410;11.852;2022-12-29T02:40:48;286.30;;;33.38;;
42146;SDS011;27815;43.410;11.852;2022-12-29T02:45:19;260.45;;;35.85;;
42146;SDS011;27815;43.410;11.852;2022-12-29T02:58:23;155.35;;;28.77;;
42146;SDS011;27815;43.410;11.852;2022-12-29T03:06:56;138.63;;;26.73;;
42146;SDS011;27815;43.410;11.852;2022-12-29T03:11:38;135.65;;;24.17;;
42146;SDS011;27815;43.410;11.852;2022-12-29T03:20:17;126.30;;;25.10;;
42146;SDS011;27815;43.410;11.852;2022-12-29T03:24:30;258.40;;;31.15;;
42146;SDS011;27815;43.410;11.852;2022-12-29T03:28:42;193.48;;;28.38;;
42146;SDS011;27815;43.410;11.852;2022-12-29T03:32:58;134.73;;;27.13;;
42146;SDS011;27815;43.410;11.852;2022-12-29T03:37:09;239.80;;;29.30;;
42146;SDS011;27815;43.410;11.852;2022-12-29T03:41:20;293.25;;;33.28;;
42146;SDS011;27815;43.410;11.852;2022-12-29T03:45:26;209.38;;;30.05;;
42146;SDS011;27815;43.410;11.852;2022-12-29T03:49:29;169.98;;;28.73;;
42146;SDS011;27815;43.410;11.852;2022-12-29T03:53:32;277.42;;;35.78;;
42146;SDS011;27815;43.410;11.852;2022-12-29T03:57:36;303.00;;;35.05;;
42146;SDS011;27815;43.410;11.852;2022-12-29T04:01:42;171.75;;;29.65;;
42146;SDS011;27815;43.410;11.852;2022-12-29T04:05:45;187.70;;;31.25;;
42146;SDS011;27815;43.410;11.852;2022-12-29T04:09:48;120.82;;;27.23;;
42146;SDS011;27815;43.410;11.852;2022-12-29T04:13:56;91.80;;;26.58;;
42146;SDS011;27815;43.410;11.852;2022-12-29T04:18:00;110.97;;;28.17;;
42146;SDS011;27815;43.410;11.852;2022-12-29T04:22:03;68.82;;;26.23;;
42146;SDS011;27815;43.410;11.852;2022-12-29T04:26:08;141.35;;;28.80;;
42146;SDS011;27815;43.410;11.852;2022-12-29T04:30:29;48.25;;;24.50;;
42146;SDS011;27815;43.410;11.852;2022-12-29T04:34:39;96.78;;;27.15;;
42146;SDS011;27815;43.410;11.852;2022-12-29T04:38:43;59.85;;;24.30;;
42146;SDS011;27815;43.410;11.852;2022-12-29T04:42:45;79.18;;;27.05;;
42146;SDS011;27815;43.410;11.852;2022-12-29T04:46:49;108.78;;;25.92;;
42146;SDS011;27815;43.410;11.852;2022-12-29T04:51:14;128.57;;;26.88;;
42146;SDS011;27815;43.410;11.852;2022-12-29T04:55:17;106.55;;;26.23;;
42146;SDS011;27815;43.410;11.852;2022-12-29T04:59:20;117.43;;;27.38;;
42146;SDS011;27815;43.410;11.852;2022-12-29T05:03:25;157.35;;;30.38;;
42146;SDS011;27815;43.410;11.852;2022-12-29T05:07:29;130.35;;;26.65;;
42146;SDS011;27815;43.410;11.852;2022-12-29T05:11:32;95.97;;;22.33;;
42146;SDS011;27815;43.410;11.852;2022-12-29T05:15:35;122.95;;;25.88;;
42146;SDS011;27815;43.410;11.852;2022-12-29T05:19:38;182.65;;;28.27;;
42146;SDS011;27815;43.410;11.852;2022-12-29T05:23:41;144.52;;;25.98;;
42146;SDS011;27815;43.410;11.852;2022-12-29T05:27:44;136.85;;;24.88;;
42146;SDS011;27815;43.410;11.852;2022-12-29T05:31:59;139.77;;;23.92;;
42146;SDS011;27815;43.410;11.852;2022-12-29T05:36:06;95.18;;;21.75;;
42146;SDS011;27815;43.410;11.852;2022-12-29T05:40:13;83.50;;;22.42;;
42146;SDS011;27815;43.410;11.852;2022-12-29T05:44:17;121.82;;;24.17;;
42146;SDS011;27815;43.410;11.852;2022-12-29T05:48:25;153.18;;;25.00;;
42146;SDS011;27815;43.410;11.852;2022-12-29T05:52:52;125.30;;;20.80;;
42146;SDS011;27815;43.410;11.852;2022-12-29T05:56:55;143.68;;;23.48;;
42146;SDS011;27815;43.410;11.852;2022-12-29T06:00:58;230.73;;;28.70;;
42146;SDS011;27815;43.410;11.852;2022-12-29T06:05:01;230.68;;;34.65;;
42146;SDS011;27815;43.410;11.852;2022-12-29T06:09:04;179.45;;;30.98;;
42146;SDS011;27815;43.410;11.852;2022-12-29T06:13:08;206.32;;;33.47;;
42146;SDS011;27815;43.410;11.852;2022-12-29T06:17:14;82.55;;;25.45;;
42146;SDS011;27815;43.410;11.852;2022-12-29T06:21:18;117.55;;;28.27;;
42146;SDS011;27815;43.410;11.852;2022-12-29T06:25:21;98.72;;;27.75;;
42146;SDS011;27815;43.410;11.852;2022-12-29T06:29:26;81.07;;;25.10;;
42146;SDS011;27815;43.410;11.852;2022-12-29T06:33:32;118.22;;;27.55;;
42146;SDS011;27815;43.410;11.852;2022-12-29T06:37:35;330.30;;;37.03;;
42146;SDS011;27815;43.410;11.852;2022-12-29T06:41:38;423.63;;;36.60;;
42146;SDS011;27815;43.410;11.852;2022-12-29T06:46:01;107.72;;;27.45;;
42146;SDS011;27815;43.410;11.852;2022-12-29T06:50:04;71.43;;;24.27;;
42146;SDS011;27815;43.410;11.852;2022-12-29T06:54:07;133.13;;;24.98;;
42146;SDS011;27815;43.410;11.852;2022-12-29T06:58:10;319.33;;;29.98;;
42146;SDS011;27815;43.410;11.852;2022-12-29T07:02:13;381.98;;;37.05;;
42146;SDS011;27815;43.410;11.852;2022-12-29T07:06:22;362.40;;;33.38;;
42146;SDS011;27815;43.410;11.852;2022-12-29T07:10:25;386.20;;;32.72;;
42146;SDS011;27815;43.410;11.852;2022-12-29T07:14:28;248.70;;;29.38;;
42146;SDS011;27815;43.410;11.852;2022-12-29T07:18:31;154.73;;;23.52;;
42146;SDS011;27815;43.410;11.852;2022-12-29T07:22:34;244.18;;;25.50;;
42146;SDS011;27815;43.410;11.852;2022-12-29T07:26:37;330.27;;;26.08;;
42146;SDS011;27815;43.410;11.852;2022-12-29T07:30:40;380.70;;;30.05;;
42146;SDS011;27815;43.410;11.852;2022-12-29T07:34:44;300.20;;;27.30;;
42146;SDS011;27815;43.410;11.852;2022-12-29T07:38:50;187.63;;;27.30;;
42146;SDS011;27815;43.410;11.852;2022-12-29T07:42:53;253.73;;;30.67;;
42146;SDS011;27815;43.410;11.852;2022-12-29T07:47:06;296.33;;;26.02;;
42146;SDS011;27815;43.410;11.852;2022-12-29T07:51:09;367.90;;;32.75;;
42146;SDS011;27815;43.410;11.852;2022-12-29T07:55:12;159.90;;;20.52;;
42146;SDS011;27815;43.410;11.852;2022-12-29T07:59:16;192.90;;;21.85;;
42146;SDS011;27815;43.410;11.852;2022-12-29T08:03:19;357.73;;;29.20;;
42146;SDS011;27815;43.410;11.852;2022-12-29T08:07:22;97.07;;;19.05;;
42146;SDS011;27815;43.410;11.852;2022-12-29T08:11:26;171.48;;;24.48;;
42146;SDS011;27815;43.410;11.852;2022-12-29T08:15:29;226.32;;;26.58;;
42146;SDS011;27815;43.410;11.852;2022-12-29T08:19:33;321.45;;;25.42;;
42146;SDS011;27815;43.410;11.852;2022-12-29T08:23:36;169.82;;;16.00;;
42146;SDS011;27815;43.410;11.852;2022-12-29T08:27:39;235.23;;;20.00;;
42146;SDS011;27815;43.410;11.852;2022-12-29T08:31:43;150.27;;;21.23;;
42146;SDS011;27815;43.410;11.852;2022-12-29T08:35:46;56.05;;;17.70;;
42146;SDS011;27815;43.410;11.852;2022-12-29T08:39:49;129.15;;;24.42;;
42146;SDS011;27815;43.410;11.852;2022-12-29T08:43:52;208.02;;;29.42;;
42146;SDS011;27815;43.410;11.852;2022-12-29T08:47:55;93.47;;;22.92;;
42146;SDS011;27815;43.410;11.852;2022-12-29T08:51:59;146.40;;;26.02;;
42146;SDS011;27815;43.410;11.852;2022-12-29T08:56:02;159.75;;;25.50;;
42146;SDS011;27815;43.410;11.852;2022-12-29T09:00:17;68.90;;;22.35;;
42146;SDS011;27815;43.410;11.852;2022-12-29T09:04:20;58.75;;;20.10;;
42146;SDS011;27815;43.410;11.852;2022-12-29T09:08:26;92.28;;;21.48;;
42146;SDS011;27815;43.410;11.852;2022-12-29T09:12:29;58.17;;;19.88;;
42146;SDS011;27815;43.410;11.852;2022-12-29T09:16:38;62.78;;;21.13;;
42146;SDS011;27815;43.410;11.852;2022-12-29T09:20:41;64.85;;;19.33;;
42146;SDS011;27815;43.410;11.852;2022-12-29T09:24:44;133.73;;;24.08;;
42146;SDS011;27815;43.410;11.852;2022-12-29T09:28:47;112.45;;;23.90;;
42146;SDS011;27815;43.410;11.852;2022-12-29T09:32:50;46.85;;;18.90;;
42146;SDS011;27815;43.410;11.852;2022-12-29T09:36:56;25.80;;;18.58;;
42146;SDS011;27815;43.410;11.852;2022-12-29T09:45:29;187.95;;;27.23;;
42146;SDS011;27815;43.410;11.852;2022-12-29T09:53:58;149.32;;;23.02;;
42146;SDS011;27815;43.410;11.852;2022-12-29T09:58:18;174.20;;;23.63;;
42146;SDS011;27815;43.410;11.852;2022-12-29T10:06:51;26.27;;;15.15;;
42146;SDS011;27815;43.410;11.852;2022-12-29T10:19:57;19.58;;;10.68;;
42146;SDS011;27815;43.410;11.852;2022-12-29T10:24:21;11.98;;;8.02;;
42146;SDS011;27815;43.410;11.852;2022-12-29T10:36:58;10.45;;;7.65;;
42146;SDS011;27815;43.410;11.852;2022-12-29T10:41:08;13.38;;;7.13;;
42146;SDS011;27815;43.410;11.852;2022-12-29T10:45:17;9.43;;;6.50;;
42146;SDS011;27815;43.410;11.852;2022-12-29T10:49:23;11.05;;;7.35;;
42146;SDS011;27815;43.410;11.852;2022-12-29T10:58:05;13.48;;;8.10;;
42146;SDS011;27815;43.410;11.852;2022-12-29T11:06:20;12.15;;;8.02;;
42146;SDS011;27815;43.410;11.852;2022-12-29T11:10:38;13.70;;;8.35;;
42146;SDS011;27815;43.410;11.852;2022-12-29T11:14:43;13.27;;;8.55;;
42146;SDS011;27815;43.410;11.852;2022-12-29T11:18:46;10.50;;;6.63;;
42146;SDS011;27815;43.410;11.852;2022-12-29T11:22:48;12.60;;;7.20;;
42146;SDS011;27815;43.410;11.852;2022-12-29T11:27:34;11.98;;;8.50;;
42146;SDS011;27815;43.410;11.852;2022-12-29T11:31:21;13.98;;;7.25;;
42146;SDS011;27815;43.410;11.852;2022-12-29T11:39:37;10.35;;;6.40;;
42146;SDS011;27815;43.410;11.852;2022-12-29T11:43:43;13.32;;;7.05;;
42146;SDS011;27815;43.410;11.852;2022-12-29T11:47:47;14.00;;;7.18;;
42146;SDS011;27815;43.410;11.852;2022-12-29T11:52:11;15.13;;;8.98;;
42146;SDS011;27815;43.410;11.852;2022-12-29T11:56:30;11.07;;;7.22;;
42146;SDS011;27815;43.410;11.852;2022-12-29T12:00:42;11.88;;;6.15;;
42146;SDS011;27815;43.410;11.852;2022-12-29T12:04:49;11.38;;;7.00;;
42146;SDS011;27815;43.410;11.852;2022-12-29T12:08:56;12.02;;;7.25;;
42146;SDS011;27815;43.410;11.852;2022-12-29T12:13:08;11.70;;;5.68;;
42146;SDS011;27815;43.410;11.852;2022-12-29T12:17:40;11.25;;;5.55;;
42146;SDS011;27815;43.410;11.852;2022-12-29T12:22:03;7.13;;;4.93;;
42146;SDS011;27815;43.410;11.852;2022-12-29T12:26:18;8.88;;;5.78;;
42146;SDS011;27815;43.410;11.852;2022-12-29T12:30:24;9.57;;;4.50;;
42146;SDS011;27815;43.410;11.852;2022-12-29T12:34:32;8.55;;;4.60;;
42146;SDS011;27815;43.410;11.852;2022-12-29T12:47:39;6.85;;;2.97;;
42146;SDS011;27815;43.410;11.852;2022-12-29T13:00:16;9.10;;;5.75;;
42146;SDS011;27815;43.410;11.852;2022-12-29T13:04:41;9.23;;;4.50;;
42146;SDS011;27815;43.410;11.852;2022-12-29T13:17:51;7.28;;;4.05;;
42146;SDS011;27815;43.410;11.852;2022-12-29T13:22:19;6.75;;;3.90;;
42146;SDS011;27815;43.410;11.852;2022-12-29T13:26:42;9.75;;;5.20;;
42146;SDS011;27815;43.410;11.852;2022-12-29T13:39:38;6.13;;;3.50;;
42146;SDS011;27815;43.410;11.852;2022-12-29T13:43:49;7.32;;;3.55;;
42146;SDS011;27815;43.410;11.852;2022-12-29T13:52:24;3.33;;;2.22;;
42146;SDS011;27815;43.410;11.852;2022-12-29T13:56:39;5.82;;;3.15;;
42146;SDS011;27815;43.410;11.852;2022-12-29T14:00:58;4.15;;;2.35;;
42146;SDS011;27815;43.410;11.852;2022-12-29T14:09:34;6.17;;;3.30;;
42146;SDS011;27815;43.410;11.852;2022-12-29T14:13:41;5.45;;;2.10;;
42146;SDS011;27815;43.410;11.852;2022-12-29T14:17:59;3.03;;;1.90;;
42146;SDS011;27815;43.410;11.852;2022-12-29T14:22:16;6.25;;;3.53;;
42146;SDS011;27815;43.410;11.852;2022-12-29T14:26:35;17.75;;;7.60;;
42146;SDS011;27815;43.410;11.852;2022-12-29T14:30:51;15.07;;;7.60;;
42146;SDS011;27815;43.410;11.852;2022-12-29T14:34:58;12.27;;;6.43;;
42146;SDS011;27815;43.410;11.852;2022-12-29T14:39:03;9.87;;;6.27;;
42146;SDS011;27815;43.410;11.852;2022-12-29T14:43:26;7.05;;;4.25;;
42146;SDS011;27815;43.410;11.852;2022-12-29T14:47:33;10.05;;;5.25;;
42146;SDS011;27815;43.410;11.852;2022-12-29T14:51:39;6.78;;;3.95;;
42146;SDS011;27815;43.410;11.852;2022-12-29T15:00:04;6.70;;;3.75;;
42146;SDS011;27815;43.410;11.852;2022-12-29T15:04:45;5.40;;;2.85;;
42146;SDS011;27815;43.410;11.852;2022-12-29T15:08:44;4.40;;;2.63;;
42146;SDS011;27815;43.410;11.852;2022-12-29T15:12:52;7.15;;;4.18;;
42146;SDS011;27815;43.410;11.852;2022-12-29T15:16:57;8.07;;;3.42;;
42146;SDS011;27815;43.410;11.852;2022-12-29T15:21:03;6.07;;;3.00;;
42146;SDS011;27815;43.410;11.852;2022-12-29T15:25:12;7.85;;;4.10;;
42146;SDS011;27815;43.410;11.852;2022-12-29T15:29:39;7.85;;;3.35;;
42146;SDS011;27815;43.410;11.852;2022-12-29T15:33:45;6.35;;;2.55;;
42146;SDS011;27815;43.410;11.852;2022-12-29T15:37:50;2.92;;;1.67;;
42146;SDS011;27815;43.410;11.852;2022-12-29T15:41:55;5.05;;;2.83;;
42146;SDS011;27815;43.410;11.852;2022-12-29T15:46:02;6.28;;;2.10;;
42146;SDS011;27815;43.410;11.852;2022-12-29T15:50:06;3.60;;;1.98;;
42146;SDS011;27815;43.410;11.852;2022-12-29T15:54:16;3.08;;;1.60;;
42146;SDS011;27815;43.410;11.852;2022-12-29T15:58:23;4.45;;;1.95;;
42146;SDS011;27815;43.410;11.852;2022-12-29T16:02:31;3.63;;;2.50;;
42146;SDS011;27815;43.410;11.852;2022-12-29T16:06:37;7.05;;;3.38;;
42146;SDS011;27815;43.410;11.852;2022-12-29T16:10:49;3.53;;;1.42;;
42146;SDS011;27815;43.410;11.852;2022-12-29T16:14:59;6.47;;;2.15;;
42146;SDS011;27815;43.410;11.852;2022-12-29T16:23:37;2.22;;;1.42;;
42146;SDS011;27815;43.410;11.852;2022-12-29T16:27:41;4.47;;;2.08;;
42146;SDS011;27815;43.410;11.852;2022-12-29T16:35:55;5.35;;;2.25;;
42146;SDS011;27815;43.410;11.852;2022-12-29T16:44:34;3.93;;;2.07;;
42146;SDS011;27815;43.410;11.852;2022-12-29T16:48:53;4.95;;;2.08;;
42146;SDS011;27815;43.410;11.852;2022-12-29T16:52:57;5.93;;;2.00;;
42146;SDS011;27815;43.410;11.852;2022-12-29T16:57:00;2.28;;;1.95;;
42146;SDS011;27815;43.410;11.852;2022-12-29T17:01:04;5.60;;;2.45;;
42146;SDS011;27815;43.410;11.852;2022-12-29T17:05:11;6.60;;;2.70;;
42146;SDS011;27815;43.410;11.852;2022-12-29T17:13:21;6.17;;;2.83;;
42146;SDS011;27815;43.410;11.852;2022-12-29T17:17:28;7.00;;;2.97;;
42146;SDS011;27815;43.410;11.852;2022-12-29T17:21:37;5.07;;;2.17;;
42146;SDS011;27815;43.410;11.852;2022-12-29T17:25:40;5.15;;;2.25;;
42146;SDS011;27815;43.410;11.852;2022-12-29T17:29:43;4.95;;;2.70;;
42146;SDS011;27815;43.410;11.852;2022-12-29T17:33:46;5.40;;;1.77;;
42146;SDS011;27815;43.410;11.852;2022-12-29T17:37:50;5.18;;;2.35;;
42146;SDS011;27815;43.410;11.852;2022-12-29T17:41:54;6.45;;;2.65;;
42146;SDS011;27815;43.410;11.852;2022-12-29T17:45:57;4.03;;;1.80;;
42146;SDS011;27815;43.410;11.852;2022-12-29T17:50:00;6.57;;;2.50;;
42146;SDS011;27815;43.410;11.852;2022-12-29T17:54:03;6.90;;;2.50;;
42146;SDS011;27815;43.410;11.852;2022-12-29T17:58:14;7.22;;;3.10;;
42146;SDS011;27815;43.410;11.852;2022-12-29T18:02:24;6.13;;;2.50;;
42146;SDS011;27815;43.410;11.852;2022-12-29T18:06:31;7.55;;;2.53;;
42146;SDS011;27815;43.410;11.852;2022-12-29T18:10:33;6.80;;;2.88;;
42146;SDS011;27815;43.410;11.852;2022-12-29T18:14:37;5.05;;;3.10;;
42146;SDS011;27815;43.410;11.852;2022-12-29T18:18:39;4.97;;;2.67;;
42146;SDS011;27815;43.410;11.852;2022-12-29T18:22:42;7.32;;;3.95;;
42146;SDS011;27815;43.410;11.852;2022-12-29T18:26:45;7.55;;;3.15;;
42146;SDS011;27815;43.410;11.852;2022-12-29T18:30:48;6.82;;;3.42;;
42146;SDS011;27815;43.410;11.852;2022-12-29T18:34:51;7.43;;;2.97;;
42146;SDS011;27815;43.410;11.852;2022-12-29T18:38:54;6.10;;;2.92;;
42146;SDS011;27815;43.410;11.852;2022-12-29T18:42:57;7.68;;;3.13;;
42146;SDS011;27815;43.410;11.852;2022-12-29T18:47:00;4.45;;;2.80;;
42146;SDS011;27815;43.410;11.852;2022-12-29T18:51:03;5.88;;;2.72;;
42146;SDS011;27815;43.410;11.852;2022-12-29T18:55:15;5.47;;;2.63;;
42146;SDS011;27815;43.410;11.852;2022-12-29T18:59:20;5.53;;;2.97;;
42146;SDS011;27815;43.410;11.852;2022-12-29T19:03:23;9.13;;;3.78;;
42146;SDS011;27815;43.410;11.852;2022-12-29T19:07:26;6.70;;;3.33;;
42146;SDS011;27815;43.410;11.852;2022-12-29T19:11:29;6.82;;;2.70;;
42146;SDS011;27815;43.410;11.852;2022-12-29T19:15:34;5.72;;;3.20;;
42146;SDS011;27815;43.410;11.852;2022-12-29T19:19:39;6.38;;;2.97;;
42146;SDS011;27815;43.410;11.852;2022-12-29T19:23:43;7.45;;;2.33;;
42146;SDS011;27815;43.410;11.852;2022-12-29T19:27:47;7.68;;;3.30;;
42146;SDS011;27815;43.410;11.852;2022-12-29T19:31:50;8.05;;;3.03;;
42146;SDS011;27815;43.410;11.852;2022-12-29T19:35:56;4.28;;;2.10;;
42146;SDS011;27815;43.410;11.852;2022-12-29T19:40:02;6.68;;;2.70;;
42146;SDS011;27815;43.410;11.852;2022-12-29T19:44:05;7.63;;;2.75;;
42146;SDS011;27815;43.410;11.852;2022-12-29T19:48:11;7.07;;;3.35;;
42146;SDS011;27815;43.410;11.852;2022-12-29T19:52:15;6.00;;;3.20;;
42146;SDS011;27815;43.410;11.852;2022-12-29T19:56:18;6.50;;;3.03;;
42146;SDS011;27815;43.410;11.852;2022-12-29T20:00:21;7.22;;;3.22;;
42146;SDS011;27815;43.410;11.852;2022-12-29T20:04:25;6.32;;;2.83;;
42146;SDS011;27815;43.410;11.852;2022-12-29T20:08:28;5.20;;;2.25;;
42146;SDS011;27815;43.410;11.852;2022-12-29T20:12:32;4.30;;;2.67;;
42146;SDS011;27815;43.410;11.852;2022-12-29T20:16:36;6.22;;;2.83;;
42146;SDS011;27815;43.410;11.852;2022-12-29T20:21:20;8.95;;;3.10;;
42146;SDS011;27815;43.410;11.852;2022-12-29T20:25:23;6.93;;;3.20;;
42146;SDS011;27815;43.410;11.852;2022-12-29T20:29:46;7.32;;;3.55;;
42146;SDS011;27815;43.410;11.852;2022-12-29T20:33:49;6.28;;;3.20;;
42146;SDS011;27815;43.410;11.852;2022-12-29T20:37:52;6.38;;;3.33;;
42146;SDS011;27815;43.410;11.852;2022-12-29T20:41:54;10.80;;;4.82;;
42146;SDS011;27815;43.410;11.852;2022-12-29T20:45:57;4.72;;;3.25;;
42146;SDS011;27815;43.410;11.852;2022-12-29T20:50:01;4.60;;;2.85;;
42146;SDS011;27815;43.410;11.852;2022-12-29T20:54:04;5.35;;;2.50;;
42146;SDS011;27815;43.410;11.852;2022-12-29T20:58:08;6.07;;;2.97;;
42146;SDS011;27815;43.410;11.852;2022-12-29T21:02:27;9.98;;;3.35;;
42146;SDS011;27815;43.410;11.852;2022-12-29T21:06:30;6.35;;;3.33;;
42146;SDS011;27815;43.410;11.852;2022-12-29T21:10:34;5.03;;;2.67;;
42146;SDS011;27815;43.410;11.852;2022-12-29T21:14:36;9.80;;;3.22;;
42146;SDS011;27815;43.410;11.852;2022-12-29T21:18:47;9.40;;;3.22;;
42146;SDS011;27815;43.410;11.852;2022-12-29T21:22:50;4.10;;;2.60;;
42146;SDS011;27815;43.410;11.852;2022-12-29T21:26:53;8.23;;;3.42;;
42146;SDS011;27815;43.410;11.852;2022-12-29T21:31:05;5.45;;;2.47;;
42146;SDS011;27815;43.410;11.852;2022-12-29T21:35:11;5.38;;;2.95;;
42146;SDS011;27815;43.410;11.852;2022-12-29T21:39:14;4.72;;;2.65;;
42146;SDS011;27815;43.410;11.852;2022-12-29T21:43:17;5.45;;;2.83;;
42146;SDS011;27815;43.410;11.852;2022-12-29T21:47:20;6.55;;;3.00;;
42146;SDS011;27815;43.410;11.852;2022-12-29T21:51:23;6.32;;;2.38;;
42146;SDS011;27815;43.410;11.852;2022-12-29T21:55:44;5.40;;;2.70;;
42146;SDS011;27815;43.410;11.852;2022-12-29T21:59:47;5.88;;;2.65;;
42146;SDS011;27815;43.410;11.852;2022-12-29T22:04:10;5.68;;;3.38;;
42146;SDS011;27815;43.410;11.852;2022-12-29T22:08:33;6.43;;;3.20;;
42146;SDS011;27815;43.410;11.852;2022-12-29T22:12:54;7.18;;;3.22;;
42146;SDS011;27815;43.410;11.852;2022-12-29T22:17:06;5.38;;;3.20;;
42146;SDS011;27815;43.410;11.852;2022-12-29T22:21:15;5.30;;;3.22;;
42146;SDS011;27815;43.410;11.852;2022-12-29T22:25:19;6.35;;;3.35;;
42146;SDS011;27815;43.410;11.852;2022-12-29T22:29:22;6.00;;;3.05;;
42146;SDS011;27815;43.410;11.852;2022-12-29T22:33:25;6.90;;;3.45;;
42146;SDS011;27815;43.410;11.852;2022-12-29T22:37:28;8.20;;;3.50;;
42146;SDS011;27815;43.410;11.852;2022-12-29T22:41:30;6.90;;;2.95;;
42146;SDS011;27815;43.410;11.852;2022-12-29T22:45:33;7.57;;;3.58;;
42146;SDS011;27815;43.410;11.852;2022-12-29T22:49:36;7.38;;;3.03;;
42146;SDS011;27815;43.410;11.852;2022-12-29T22:53:39;4.30;;;2.58;;
42146;SDS011;27815;43.410;11.852;2022-12-29T22:57:42;6.95;;;3.03;;
42146;SDS011;27815;43.410;11.852;2022-12-29T23:01:45;6.53;;;3.60;;
42146;SDS011;27815;43.410;11.852;2022-12-29T23:05:58;7.32;;;3.50;;
42146;SDS011;27815;43.410;11.852;2022-12-29T23:10:03;8.38;;;3.13;;
42146;SDS011;27815;43.410;11.852;2022-12-29T23:14:06;6.75;;;4.00;;
42146;SDS011;27815;43.410;11.852;2022-12-29T23:18:09;5.80;;;3.70;;
42146;SDS011;27815;43.410;11.852;2022-12-29T23:22:12;6.93;;;3.22;;
42146;SDS011;27815;43.410;11.852;2022-12-29T23:26:16;6.65;;;3.92;;
42146;SDS011;27815;43.410;11.852;2022-12-29T23:30:20;6.93;;;4.03;;
42146;SDS011;27815;43.410;11.852;2022-12-29T23:34:23;7.72;;;3.78;;
42146;SDS011;27815;43.410;11.852;2022-12-29T23:38:26;7.10;;;3.45;;
42146;SDS011;27815;43.410;11.852;2022-12-29T23:42:29;12.65;;;3.45;;
42146;SDS011;27815;43.410;11.852;2022-12-29T23:46:32;8.13;;;3.75;;
42146;SDS011;27815;43.410;11.852;2022-12-29T23:50:37;6.88;;;3.33;;
42146;SDS011;27815;43.410;11.852;2022-12-29T23:54:42;5.68;;;2.92;;
42146;SDS011;27815;43.410;11.852;2022-12-29T23:58:45;7.38;;;3.65;;
